createdAt,value
2023-02-15T00:01:34.972Z,15.40
2023-02-15T00:04:01.925Z,10.23
2023-02-15T00:06:28.918Z,10.98
2023-02-15T00:08:55.814Z,11.82
2023-02-15T00:11:40.751Z,11.00
2023-02-15T00:14:16.244Z,11.15
2023-02-15T00:16:43.991Z,12.43
2023-02-15T00:19:11.323Z,11.55
2023-02-15T00:21:38.754Z,15.35
2023-02-15T00:24:06.377Z,9.80
2023-02-15T00:26:33.424Z,14.98
2023-02-15T00:29:00.428Z,13.38
2023-02-15T00:31:32.019Z,12.65
2023-02-15T00:34:21.797Z,11.15
2023-02-15T00:39:15.545Z,10.75
2023-02-15T00:41:42.580Z,12.00
2023-02-15T00:44:09.430Z,10.60
2023-02-15T00:46:36.432Z,12.70
2023-02-15T00:49:03.447Z,11.85
2023-02-15T00:51:30.319Z,12.45
2023-02-15T00:53:57.041Z,12.15
2023-02-15T00:56:23.834Z,12.38
2023-02-15T00:58:50.738Z,11.23
2023-02-15T01:01:18.975Z,11.55
2023-02-15T01:03:47.615Z,12.20
2023-02-15T01:06:15.470Z,12.73
2023-02-15T01:08:42.380Z,12.02
2023-02-15T01:11:11.038Z,12.02
2023-02-15T01:13:38.074Z,10.80
2023-02-15T01:16:05.599Z,11.77
2023-02-15T01:18:32.592Z,11.80
2023-02-15T01:20:59.497Z,11.43
2023-02-15T01:23:26.377Z,12.05
2023-02-15T01:25:53.205Z,11.63
2023-02-15T01:28:20.054Z,12.18
2023-02-15T01:30:47.017Z,12.88
2023-02-15T01:33:19.104Z,12.73
2023-02-15T01:35:47.620Z,10.20
2023-02-15T01:38:14.972Z,10.25
2023-02-15T01:40:41.967Z,11.50
2023-02-15T01:43:11.480Z,11.35
2023-02-15T01:45:38.371Z,13.07
2023-02-15T01:48:25.249Z,12.32
2023-02-15T01:50:57.750Z,12.80
2023-02-15T01:53:35.585Z,12.25
2023-02-15T01:56:05.802Z,10.95
2023-02-15T01:58:32.550Z,11.63
2023-02-15T02:01:01.355Z,12.13
2023-02-15T02:03:40.439Z,12.23
2023-02-15T02:06:07.296Z,11.00
2023-02-15T02:08:34.037Z,11.27
2023-02-15T02:11:00.921Z,10.70
2023-02-15T02:13:27.860Z,11.85
2023-02-15T02:16:24.699Z,11.35
2023-02-15T02:19:06.844Z,12.00
2023-02-15T02:22:10.925Z,12.80
2023-02-15T02:24:52.936Z,11.50
2023-02-15T02:27:27.634Z,11.15
2023-02-15T02:30:28.563Z,10.27
2023-02-15T02:33:40.783Z,14.20
2023-02-15T02:36:24.785Z,11.85
2023-02-15T02:39:09.775Z,11.95
2023-02-15T02:41:51.334Z,12.75
2023-02-15T02:44:44.947Z,11.27
2023-02-15T02:47:16.777Z,11.48
2023-02-15T02:49:43.916Z,11.43
2023-02-15T02:52:35.636Z,11.27
2023-02-15T02:55:04.500Z,14.23
2023-02-15T02:57:31.341Z,11.90
2023-02-15T02:59:58.163Z,10.82
2023-02-15T03:02:27.616Z,11.52
2023-02-15T03:04:59.422Z,12.02
2023-02-15T03:07:26.254Z,12.93
2023-02-15T03:09:53.331Z,12.48
2023-02-15T03:12:37.734Z,12.85
2023-02-15T03:15:12.496Z,12.82
2023-02-15T03:17:42.422Z,11.63
2023-02-15T03:20:15.651Z,11.18
2023-02-15T03:22:49.158Z,11.75
2023-02-15T03:25:32.735Z,12.60
2023-02-15T03:28:10.946Z,12.23
2023-02-15T03:30:37.925Z,11.88
2023-02-15T03:33:04.833Z,11.80
2023-02-15T03:35:46.270Z,12.00
2023-02-15T03:38:13.949Z,10.57
2023-02-15T03:41:01.823Z,10.82
2023-02-15T03:43:52.443Z,12.65
2023-02-15T03:46:33.575Z,12.10
2023-02-15T03:49:07.264Z,10.88
2023-02-15T03:51:36.165Z,11.70
2023-02-15T03:54:38.495Z,10.53
2023-02-15T03:57:24.336Z,9.88
2023-02-15T04:00:09.742Z,11.52
2023-02-15T04:02:40.996Z,9.80
2023-02-15T04:05:10.767Z,11.07
2023-02-15T04:07:37.582Z,11.02
2023-02-15T04:10:23.078Z,11.30
2023-02-15T04:12:49.913Z,11.35
2023-02-15T04:15:35.227Z,10.90
2023-02-15T04:18:04.326Z,10.75
2023-02-15T04:20:49.789Z,10.68
2023-02-15T04:23:34.939Z,11.55
2023-02-15T04:26:05.526Z,10.50
2023-02-15T04:28:32.490Z,10.25
2023-02-15T04:30:59.319Z,11.52
2023-02-15T04:33:26.178Z,10.27
2023-02-15T04:35:52.988Z,9.68
2023-02-15T04:38:19.742Z,9.93
2023-02-15T04:40:51.069Z,10.27
2023-02-15T04:43:17.833Z,10.88
2023-02-15T04:45:50.260Z,11.73
2023-02-15T04:48:17.734Z,11.07
2023-02-15T04:50:45.158Z,10.68
2023-02-15T04:53:12.065Z,11.30
2023-02-15T04:55:38.997Z,11.13
2023-02-15T04:58:05.744Z,11.05
2023-02-15T05:00:32.455Z,11.18
2023-02-15T05:02:59.594Z,12.02
2023-02-15T05:05:26.436Z,13.40
2023-02-15T05:07:53.264Z,11.82
2023-02-15T05:10:20.284Z,11.43
2023-02-15T05:12:47.215Z,12.10
2023-02-15T05:15:13.952Z,11.55
2023-02-15T05:17:40.924Z,11.27
2023-02-15T05:20:08.255Z,12.07
2023-02-15T05:22:35.072Z,11.23
2023-02-15T05:25:20.449Z,10.57
2023-02-15T05:28:10.136Z,11.40
2023-02-15T05:30:37.392Z,10.73
2023-02-15T05:33:04.297Z,10.75
2023-02-15T05:35:31.013Z,11.35
2023-02-15T05:37:57.862Z,10.00
2023-02-15T05:40:24.598Z,9.88
2023-02-15T05:42:51.471Z,24.17
2023-02-15T05:45:18.289Z,11.00
2023-02-15T05:47:45.055Z,9.95
2023-02-15T05:50:12.417Z,10.43
2023-02-15T05:52:39.257Z,11.30
2023-02-15T05:55:06.495Z,9.13
2023-02-15T05:57:33.345Z,10.05
2023-02-15T06:00:00.268Z,11.43
2023-02-15T06:02:27.188Z,9.38
2023-02-15T06:04:54.015Z,10.10
2023-02-15T06:07:20.921Z,13.03
2023-02-15T06:09:47.658Z,11.57
2023-02-15T06:12:14.470Z,11.48
2023-02-15T06:14:41.409Z,11.73
2023-02-15T06:17:08.164Z,11.88
2023-02-15T06:19:34.914Z,10.55
2023-02-15T06:22:01.716Z,10.50
2023-02-15T06:24:28.529Z,11.03
2023-02-15T06:26:55.326Z,11.57
2023-02-15T06:29:22.220Z,11.65
2023-02-15T06:31:49.010Z,11.73
2023-02-15T06:34:15.940Z,11.47
2023-02-15T06:36:42.821Z,11.98
2023-02-15T06:39:09.621Z,10.48
2023-02-15T06:41:36.358Z,11.15
2023-02-15T06:44:03.335Z,10.23
2023-02-15T06:46:30.107Z,10.27
2023-02-15T06:48:56.906Z,13.00
2023-02-15T06:51:23.868Z,10.60
2023-02-15T06:53:50.661Z,9.93
2023-02-15T06:56:17.450Z,11.60
2023-02-15T06:58:44.392Z,10.20
2023-02-15T07:01:11.691Z,11.35
2023-02-15T07:03:38.488Z,10.53
2023-02-15T07:06:07.439Z,10.15
2023-02-15T07:08:34.380Z,13.20
2023-02-15T07:11:21.429Z,11.52
2023-02-15T07:13:48.416Z,11.52
2023-02-15T07:16:15.320Z,11.80
2023-02-15T07:18:42.211Z,11.63
2023-02-15T07:21:09.073Z,11.37
2023-02-15T07:23:39.432Z,11.77
2023-02-15T07:26:06.823Z,10.70
2023-02-15T07:28:34.642Z,11.48
2023-02-15T07:31:05.252Z,11.60
2023-02-15T07:33:33.163Z,11.00
2023-02-15T07:36:03.380Z,11.35
2023-02-15T07:38:35.176Z,12.63
2023-02-15T07:41:03.026Z,14.55
2023-02-15T07:43:30.545Z,13.57
2023-02-15T07:46:08.658Z,10.73
2023-02-15T07:48:36.087Z,11.23
2023-02-15T07:51:03.861Z,12.95
2023-02-15T07:53:31.068Z,11.90
2023-02-15T07:56:02.143Z,12.95
2023-02-15T07:58:47.650Z,13.00
2023-02-15T08:01:15.382Z,10.88
2023-02-15T08:03:42.340Z,11.27
2023-02-15T08:06:09.236Z,11.80
2023-02-15T08:08:36.547Z,12.60
2023-02-15T08:11:48.720Z,13.32
2023-02-15T08:14:20.002Z,12.93
2023-02-15T08:16:48.946Z,13.27
2023-02-15T08:19:25.884Z,13.80
2023-02-15T08:21:54.792Z,12.68
2023-02-15T08:24:22.526Z,13.05
2023-02-15T08:26:49.644Z,12.38
2023-02-15T08:29:17.232Z,15.20
2023-02-15T08:31:44.166Z,11.20
2023-02-15T08:34:12.643Z,12.13
2023-02-15T08:36:39.617Z,13.02
2023-02-15T08:39:06.968Z,12.90
2023-02-15T08:41:38.960Z,11.35
2023-02-15T08:44:07.965Z,16.05
2023-02-15T08:46:36.582Z,15.05
2023-02-15T08:49:03.495Z,12.95
2023-02-15T08:51:32.075Z,12.48
2023-02-15T08:54:00.590Z,13.25
2023-02-15T08:56:33.227Z,14.88
2023-02-15T08:59:00.041Z,12.60
2023-02-15T09:01:31.756Z,12.55
2023-02-15T09:04:00.537Z,12.98
2023-02-15T09:06:27.926Z,13.37
2023-02-15T09:08:54.996Z,13.05
2023-02-15T09:11:24.082Z,12.82
2023-02-15T09:13:52.557Z,14.57
2023-02-15T09:16:19.362Z,11.88
2023-02-15T09:18:46.441Z,12.77
2023-02-15T09:21:14.829Z,15.48
2023-02-15T09:23:42.606Z,17.00
2023-02-15T09:26:13.853Z,11.57
2023-02-15T09:28:40.779Z,12.85
2023-02-15T09:31:14.859Z,17.60
2023-02-15T09:33:42.482Z,14.05
2023-02-15T09:36:20.227Z,14.35
2023-02-15T09:38:47.401Z,12.48
2023-02-15T09:41:34.389Z,12.23
2023-02-15T09:44:17.830Z,13.73
2023-02-15T09:47:17.420Z,12.32
2023-02-15T09:52:38.337Z,14.95
2023-02-15T09:55:17.006Z,12.02
2023-02-15T09:57:46.787Z,13.32
2023-02-15T10:00:25.717Z,14.85
2023-02-15T10:02:55.691Z,13.18
2023-02-15T10:05:48.800Z,12.93
2023-02-15T10:08:24.731Z,13.15
2023-02-15T10:11:24.139Z,11.80
2023-02-15T10:14:17.179Z,13.48
2023-02-15T10:16:51.168Z,11.35
2023-02-15T10:19:43.124Z,13.32
2023-02-15T10:22:19.693Z,11.18
2023-02-15T10:24:49.481Z,10.93
2023-02-15T10:27:22.362Z,12.70
2023-02-15T10:29:50.188Z,11.75
2023-02-15T10:32:17.090Z,13.63
2023-02-15T10:34:46.766Z,12.30
2023-02-15T10:37:27.430Z,13.63
2023-02-15T10:40:00.114Z,16.05
2023-02-15T10:42:45.169Z,17.83
2023-02-15T10:45:41.315Z,13.00
2023-02-15T10:48:38.798Z,14.15
2023-02-15T10:51:07.460Z,13.50
2023-02-15T10:54:02.142Z,12.18
2023-02-15T10:56:41.037Z,18.85
2023-02-15T10:59:20.634Z,11.63
2023-02-15T11:02:02.293Z,13.05
2023-02-15T11:04:38.521Z,13.15
2023-02-15T11:07:24.322Z,12.75
2023-02-15T11:10:18.781Z,13.93
2023-02-15T11:12:45.810Z,17.08
2023-02-15T11:15:16.401Z,15.30
2023-02-15T11:17:45.784Z,15.25
2023-02-15T11:22:58.388Z,14.65
2023-02-15T11:25:26.745Z,14.32
2023-02-15T11:27:53.562Z,13.93
2023-02-15T11:30:53.186Z,12.27
2023-02-15T11:33:26.212Z,13.95
2023-02-15T11:35:57.388Z,14.05
2023-02-15T11:38:30.063Z,12.02
2023-02-15T11:41:21.489Z,12.88
2023-02-15T11:43:53.482Z,14.18
2023-02-15T11:46:22.140Z,13.10
2023-02-15T11:48:48.913Z,12.70
2023-02-15T11:51:17.816Z,13.27
2023-02-15T11:53:44.989Z,16.33
2023-02-15T11:56:31.952Z,12.50
2023-02-15T11:59:05.115Z,16.48
2023-02-15T12:01:34.077Z,13.68
2023-02-15T12:04:07.745Z,12.07
2023-02-15T12:06:39.813Z,12.73
2023-02-15T12:09:28.344Z,14.20
2023-02-15T12:11:55.173Z,13.20
2023-02-15T12:14:22.138Z,13.55
2023-02-15T12:16:53.178Z,11.68
2023-02-15T12:19:53.765Z,13.75
2023-02-15T12:22:30.753Z,13.38
2023-02-15T12:25:01.395Z,16.92
2023-02-15T12:27:32.308Z,14.15
2023-02-15T12:30:07.202Z,16.75
2023-02-15T12:32:47.868Z,12.55
2023-02-15T12:35:16.052Z,13.43
2023-02-15T12:37:56.497Z,16.50
2023-02-15T12:40:28.793Z,13.45
2023-02-15T12:42:57.148Z,12.55
2023-02-15T12:45:31.805Z,13.38
2023-02-15T12:48:14.112Z,16.35
2023-02-15T12:50:42.352Z,14.70
2023-02-15T12:53:35.558Z,16.65
2023-02-15T12:56:04.034Z,12.07
2023-02-15T12:58:34.938Z,12.93
2023-02-15T13:01:13.275Z,15.20
2023-02-15T13:03:52.616Z,15.38
2023-02-15T13:06:19.781Z,12.43
2023-02-15T13:08:48.863Z,12.43
2023-02-15T13:11:21.514Z,12.80
2023-02-15T13:13:55.961Z,11.95
2023-02-15T13:16:36.241Z,12.75
2023-02-15T13:19:16.685Z,14.23
2023-02-15T13:21:46.230Z,16.80
2023-02-15T13:24:27.206Z,11.90
2023-02-15T13:27:03.408Z,12.10
2023-02-15T13:29:37.253Z,12.07
2023-02-15T13:32:11.983Z,12.60
2023-02-15T13:34:39.810Z,11.40
2023-02-15T13:37:15.056Z,11.27
2023-02-15T13:39:41.907Z,11.40
2023-02-15T13:42:22.342Z,13.55
2023-02-15T13:45:10.822Z,11.90
2023-02-15T13:47:56.147Z,12.20
2023-02-15T13:50:38.492Z,12.60
2023-02-15T13:53:08.104Z,12.77
2023-02-15T13:56:07.734Z,12.55
2023-02-15T13:58:42.849Z,12.40
2023-02-15T14:01:30.019Z,11.77
2023-02-15T14:04:15.147Z,11.27
2023-02-15T14:06:53.816Z,11.63
2023-02-15T14:09:38.678Z,12.95
2023-02-15T14:12:27.272Z,12.43
2023-02-15T14:15:26.227Z,12.60
2023-02-15T14:18:22.163Z,13.30
2023-02-15T14:21:04.683Z,14.85
2023-02-15T14:23:43.753Z,12.50
2023-02-15T14:26:24.565Z,15.20
2023-02-15T14:29:23.725Z,15.55
2023-02-15T14:31:53.413Z,12.52
2023-02-15T14:34:30.482Z,13.30
2023-02-15T14:36:57.324Z,13.23
2023-02-15T14:39:51.319Z,12.05
2023-02-15T14:42:20.288Z,12.25
2023-02-15T14:44:51.902Z,13.18
2023-02-15T14:47:35.538Z,15.15
2023-02-15T14:50:32.104Z,11.93
2023-02-15T14:53:28.724Z,11.07
2023-02-15T14:56:14.797Z,11.18
2023-02-15T14:59:23.795Z,12.40
2023-02-15T15:02:04.893Z,15.60
2023-02-15T15:04:37.683Z,15.50
2023-02-15T15:07:10.556Z,14.63
2023-02-15T15:09:39.398Z,16.15
2023-02-15T15:12:25.045Z,15.07
2023-02-15T15:14:53.410Z,14.35
2023-02-15T15:17:32.393Z,15.45
2023-02-15T15:19:59.930Z,15.25
2023-02-15T15:22:28.136Z,15.88
2023-02-15T15:25:04.055Z,15.95
2023-02-15T15:27:54.360Z,16.25
2023-02-15T15:30:24.359Z,16.80
2023-02-15T15:32:57.793Z,15.75
2023-02-15T15:35:38.658Z,16.10
2023-02-15T15:38:14.407Z,15.68
2023-02-15T15:40:50.210Z,17.98
2023-02-15T15:43:58.702Z,15.50
2023-02-15T15:46:32.578Z,16.38
2023-02-15T15:49:10.245Z,17.13
2023-02-15T15:51:38.700Z,14.38
2023-02-15T15:54:06.149Z,15.30
2023-02-15T15:56:36.416Z,14.68
2023-02-15T15:59:06.172Z,14.70
2023-02-15T16:01:39.479Z,15.57
2023-02-15T16:04:06.608Z,15.02
2023-02-15T16:06:38.108Z,15.57
2023-02-15T16:09:18.858Z,18.58
2023-02-15T16:11:48.040Z,14.55
2023-02-15T16:14:27.782Z,15.68
2023-02-15T16:16:57.133Z,16.08
2023-02-15T16:19:44.208Z,20.55
2023-02-15T16:22:14.044Z,15.63
2023-02-15T16:24:55.974Z,19.10
2023-02-15T16:27:36.167Z,15.07
2023-02-15T16:30:36.293Z,13.70
2023-02-15T16:33:10.044Z,14.45
2023-02-15T16:35:38.600Z,14.30
2023-02-15T16:38:05.529Z,13.75
2023-02-15T16:40:58.529Z,12.23
2023-02-15T16:43:27.525Z,13.15
2023-02-15T16:45:58.025Z,14.52
2023-02-15T16:48:25.387Z,14.73
2023-02-15T16:50:54.670Z,13.50
2023-02-15T16:53:26.289Z,14.20
2023-02-15T16:55:55.683Z,13.43
2023-02-15T16:58:31.687Z,12.43
2023-02-15T17:00:59.941Z,14.15
2023-02-15T17:03:27.067Z,15.07
2023-02-15T17:06:00.914Z,14.20
2023-02-15T17:08:31.941Z,14.43
2023-02-15T17:11:15.592Z,14.38
2023-02-15T17:14:04.867Z,14.70
2023-02-15T17:16:35.692Z,13.82
2023-02-15T17:19:03.305Z,13.43
2023-02-15T17:21:34.179Z,12.93
2023-02-15T17:24:02.166Z,13.20
2023-02-15T17:26:34.092Z,12.55
2023-02-15T17:29:03.340Z,15.65
2023-02-15T17:31:33.677Z,16.20
2023-02-15T17:34:01.423Z,15.68
2023-02-15T17:36:30.628Z,17.85
2023-02-15T17:39:01.695Z,17.85
2023-02-15T17:41:35.787Z,15.27
2023-02-15T17:44:03.922Z,14.45
2023-02-15T17:46:35.615Z,14.85
2023-02-15T17:49:02.632Z,16.52
2023-02-15T17:51:29.451Z,15.15
2023-02-15T17:54:14.970Z,14.80
2023-02-15T17:56:41.776Z,19.23
2023-02-15T17:59:09.634Z,14.52
2023-02-15T18:01:55.006Z,15.93
2023-02-15T18:04:40.476Z,18.13
2023-02-15T18:07:28.487Z,19.63
2023-02-15T18:10:13.623Z,14.15
2023-02-15T18:12:41.093Z,17.90
2023-02-15T18:15:10.903Z,15.73
2023-02-15T18:17:41.146Z,19.45
2023-02-15T18:20:17.130Z,19.63
2023-02-15T18:22:44.693Z,20.35
2023-02-15T18:25:15.209Z,19.83
2023-02-15T18:27:41.939Z,22.35
2023-02-15T18:30:09.729Z,24.27
2023-02-15T18:32:36.710Z,20.30
2023-02-15T18:35:03.680Z,20.85
2023-02-15T18:37:31.984Z,19.98
2023-02-15T18:39:58.761Z,25.13
2023-02-15T18:42:27.670Z,25.05
2023-02-15T18:44:59.506Z,22.77
2023-02-15T18:47:26.567Z,23.55
2023-02-15T18:49:53.625Z,22.95
2023-02-15T18:52:25.232Z,22.08
2023-02-15T18:54:53.701Z,23.70
2023-02-15T18:57:20.561Z,25.70
2023-02-15T18:59:47.504Z,22.15
2023-02-15T19:02:15.685Z,19.95
2023-02-15T19:04:42.529Z,24.95
2023-02-15T19:07:26.423Z,27.08
2023-02-15T19:09:55.275Z,26.67
2023-02-15T19:12:22.163Z,26.70
2023-02-15T19:14:48.968Z,19.45
2023-02-15T19:17:17.859Z,31.92
2023-02-15T19:19:45.400Z,30.92
2023-02-15T19:22:17.321Z,28.98
2023-02-15T19:24:44.880Z,27.20
2023-02-15T19:27:32.965Z,23.73
2023-02-15T19:29:59.998Z,24.40
2023-02-15T19:32:27.944Z,21.35
2023-02-15T19:34:54.839Z,21.98
2023-02-15T19:37:35.404Z,20.92
2023-02-15T19:40:05.269Z,24.85
2023-02-15T19:42:33.356Z,27.00
2023-02-15T19:45:00.348Z,38.15
2023-02-15T19:47:28.411Z,33.30
2023-02-15T19:50:00.426Z,40.75
2023-02-15T19:52:27.262Z,34.10
2023-02-15T19:54:54.835Z,34.75
2023-02-15T19:57:21.910Z,27.40
2023-02-15T19:59:48.791Z,25.90
2023-02-15T20:02:18.348Z,25.33
2023-02-15T20:04:45.131Z,30.83
2023-02-15T20:07:25.245Z,34.42
2023-02-15T20:09:52.064Z,30.60
2023-02-15T20:12:21.842Z,27.33
2023-02-15T20:17:15.224Z,31.77
2023-02-15T20:19:42.015Z,29.00
2023-02-15T20:22:25.939Z,28.40
2023-02-15T20:24:52.843Z,29.30
2023-02-15T20:27:19.872Z,25.63
2023-02-15T20:29:46.836Z,35.75
2023-02-15T20:32:13.730Z,26.48
2023-02-15T20:34:40.588Z,26.80
2023-02-15T20:37:15.024Z,26.38
2023-02-15T20:39:41.835Z,28.83
2023-02-15T20:42:11.875Z,31.27
2023-02-15T20:44:39.621Z,27.65
2023-02-15T20:47:06.362Z,22.00
2023-02-15T20:49:33.325Z,25.90
2023-02-15T20:52:00.163Z,25.77
2023-02-15T20:54:29.099Z,26.70
2023-02-15T20:56:55.900Z,25.17
2023-02-15T20:59:32.647Z,27.38
2023-02-15T21:02:16.052Z,29.98
2023-02-15T21:04:43.065Z,26.88
2023-02-15T21:07:17.882Z,23.38
2023-02-15T21:09:45.560Z,26.98
2023-02-15T21:12:16.735Z,24.95
2023-02-15T21:14:44.986Z,30.60
2023-02-15T21:17:15.524Z,22.00
2023-02-15T21:19:42.597Z,26.13
2023-02-15T21:22:12.346Z,26.80
2023-02-15T21:24:39.388Z,24.05
2023-02-15T21:27:06.852Z,24.73
2023-02-15T21:29:33.694Z,27.83
2023-02-15T21:32:02.712Z,25.48
2023-02-15T21:34:29.537Z,20.83
2023-02-15T21:36:56.627Z,23.70
2023-02-15T21:39:27.653Z,20.08
2023-02-15T21:42:13.351Z,24.17
2023-02-15T21:44:59.025Z,22.98
2023-02-15T21:47:48.900Z,24.13
2023-02-15T21:53:04.465Z,25.13
2023-02-15T21:55:32.942Z,24.98
2023-02-15T21:58:00.528Z,29.83
2023-02-15T22:00:27.821Z,39.60
2023-02-15T22:02:56.181Z,32.63
2023-02-15T22:05:25.757Z,30.08
2023-02-15T22:07:52.558Z,25.02
2023-02-15T22:10:22.336Z,22.55
2023-02-15T22:12:49.549Z,25.23
2023-02-15T22:15:21.071Z,27.10
2023-02-15T22:17:48.444Z,26.75
2023-02-15T22:20:19.403Z,30.80
2023-02-15T22:22:49.457Z,20.27
2023-02-15T22:25:19.265Z,32.00
2023-02-15T22:30:30.511Z,24.67
2023-02-15T22:32:57.659Z,18.05
2023-02-15T22:35:32.276Z,23.48
2023-02-15T22:37:59.148Z,22.40
2023-02-15T22:40:33.402Z,19.55
2023-02-15T22:43:01.603Z,24.30
2023-02-15T22:45:28.546Z,22.20
2023-02-15T22:47:59.902Z,23.73
2023-02-15T22:50:31.521Z,22.77
2023-02-15T22:53:02.043Z,21.90
2023-02-15T22:55:33.054Z,23.25
2023-02-15T22:57:59.774Z,32.47
2023-02-15T23:00:28.925Z,24.08
2023-02-15T23:02:55.925Z,22.02
2023-02-15T23:05:23.689Z,22.75
2023-02-15T23:07:50.565Z,35.33
2023-02-15T23:10:21.692Z,25.98
2023-02-15T23:13:10.981Z,20.50
2023-02-15T23:15:38.098Z,19.58
2023-02-15T23:18:29.279Z,32.53
2023-02-15T23:21:00.949Z,25.98
2023-02-15T23:23:31.637Z,32.95
2023-02-15T23:25:58.645Z,23.55
2023-02-15T23:28:30.535Z,22.33
2023-02-15T23:30:58.803Z,29.63
2023-02-15T23:33:30.247Z,31.45
2023-02-15T23:35:57.193Z,39.28
2023-02-15T23:38:26.260Z,31.48
2023-02-15T23:41:13.327Z,28.10
2023-02-15T23:43:40.720Z,23.60
2023-02-15T23:46:08.237Z,26.38
2023-02-15T23:48:37.166Z,23.23
2023-02-15T23:51:05.496Z,24.40
2023-02-15T23:53:32.579Z,22.30
2023-02-15T23:55:59.576Z,21.23
2023-02-15T23:58:34.208Z,21.65
